Terminal Aerodrome Forecast
Issued by NWS

Home | Current Version | Previous Version | Text Only | Print | Product List | Glossary On
Versions: 1 2 3 4 5 6 7 8 9 10 11 12
000
FTUS45 KPSR 182323
TAFIWA
TAF
KIWA 182323Z 1900/1924 31006KT P6SM SCT120 BKN150
     FM190400 12005KT P6SM FEW120 BKN150
      AMD LTD TO CLD VIS AND WIND 1903/1913=

USA.gov is the U.S. government's official web portal to all federal, state and local government web resources and services.